Time;durP1;ratioP1;P1;durP2;ratioP2;P2;SDS_P1;SDS_P2;PMS_P1;PMS_P2;Temp;Humidity;BMP_temperature;BMP_pressure;BME280_temperature;BME280_humidity;BME280_pressure;Samples;Min_cycle;Max_cycle;Signal;HPM_P1;HPM_P2
2023/02/08 00:00:23;;;;;;;;;52.25;41.00;;;;;6.09;49.06;103135.22;4943621;28;47355;-64
2023/02/08 00:02:49;;;;;;;;;47.00;39.00;;;;;6.07;49.07;103129.03;4961225;28;45172;-65
2023/02/08 00:05:16;;;;;;;;;51.25;37.75;;;;;6.05;49.19;103121.97;4960047;28;45293;-64
2023/02/08 00:07:41;;;;;;;;;46.25;37.00;;;;;6.05;49.36;103124.56;4961243;28;45629;-64
2023/02/08 00:10:07;;;;;;;;;45.75;37.50;;;;;6.03;49.35;103124.50;4943232;28;47054;-64
2023/02/08 00:12:36;;;;;;;;;44.75;35.25;;;;;6.01;49.10;103118.31;4960919;28;45255;-64
2023/02/08 00:15:02;;;;;;;;;52.00;40.75;;;;;6.02;49.40;103122.72;4960953;28;45250;-64
2023/02/08 00:17:27;;;;;;;;;48.75;35.75;;;;;5.97;49.34;103119.00;4961056;28;45172;-64
2023/02/08 00:19:53;;;;;;;;;51.50;40.00;;;;;5.74;49.36;103077.16;4960736;28;45228;-64
2023/02/08 00:22:18;;;;;;;;;44.50;38.50;;;;;5.96;49.38;103115.50;4960056;28;45220;-64
2023/02/08 00:24:43;;;;;;;;;48.00;39.25;;;;;5.94;49.26;103116.28;4963930;28;45838;-64
2023/02/08 00:27:09;;;;;;;;;49.25;39.75;;;;;5.89;49.33;103099.50;4964271;28;45313;-64
2023/02/08 00:29:34;;;;;;;;;47.50;37.25;;;;;5.88;49.16;103101.22;4964134;28;45189;-64
2023/02/08 00:31:59;;;;;;;;;48.25;38.75;;;;;5.88;49.44;103106.44;4964393;28;45440;-64
2023/02/08 00:34:25;;;;;;;;;53.50;41.00;;;;;5.85;49.26;103096.75;4964155;28;45477;-64
2023/02/08 00:36:50;;;;;;;;;50.25;39.00;;;;;5.87;49.33;103099.44;4946835;28;45186;-64
2023/02/08 00:39:15;;;;;;;;;52.25;42.25;;;;;5.79;49.41;103090.41;4963738;28;45331;-64
2023/02/08 00:41:41;;;;;;;;;51.00;41.25;;;;;5.74;49.37;103084.09;4964160;28;45426;-64
2023/02/08 00:44:06;;;;;;;;;48.50;39.75;;;;;5.79;49.23;103093.88;4964009;28;45511;-64
2023/02/08 00:46:31;;;;;;;;;50.25;41.00;;;;;5.81;49.55;103093.94;4963782;28;45283;-64
2023/02/08 00:48:57;;;;;;;;;44.50;37.00;;;;;5.78;49.45;103086.88;4963777;28;46919;-64
2023/02/08 00:51:22;;;;;;;;;46.25;40.75;;;;;5.78;49.48;103089.50;4946530;28;45365;-64
2023/02/08 00:53:47;;;;;;;;;40.25;33.50;;;;;5.77;49.43;103100.75;4963778;28;45506;-64
2023/02/08 00:56:14;;;;;;;;;51.75;40.00;;;;;5.74;49.39;103090.19;4963575;28;45665;-64
2023/02/08 00:58:41;;;;;;;;;51.25;39.00;;;;;5.74;49.44;103097.13;4963844;28;45538;-64
2023/02/08 01:01:07;;;;;;;;;45.00;38.00;;;;;5.73;49.60;103088.41;4963840;28;45521;-63
2023/02/08 01:03:34;;;;;;;;;47.25;39.00;;;;;5.72;49.33;103085.72;4963951;28;45402;-64
2023/02/08 01:06:04;;;;;;;;;45.50;38.75;;;;;5.67;49.38;103081.22;4963689;28;45524;-64
2023/02/08 01:08:30;;;;;;;;;52.25;40.75;;;;;5.68;49.65;103092.53;4963318;28;47161;-64
2023/02/08 01:11:11;;;;;;;;;54.00;40.00;;;;;5.63;49.65;103087.09;4963554;28;45342;-64
2023/02/08 01:13:37;;;;;;;;;51.50;39.50;;;;;5.64;49.50;103093.22;4946282;28;45458;-64
2023/02/08 01:16:07;;;;;;;;;47.25;38.25;;;;;5.61;49.62;103096.59;4963441;28;45467;-64
2023/02/08 01:18:33;;;;;;;;;43.25;33.50;;;;;5.59;49.70;103099.97;4963445;28;45269;-64
2023/02/08 01:21:10;;;;;;;;;53.25;41.00;;;;;5.58;49.64;103096.44;4962349;28;45204;-64
2023/02/08 01:23:36;;;;;;;;;48.75;41.25;;;;;5.57;49.65;103104.22;4946010;28;45269;-64
2023/02/08 01:26:03;;;;;;;;;45.75;39.50;;;;;5.56;50.06;103105.03;4945724;28;45372;-63
2023/02/08 01:28:28;;;;;;;;;47.25;38.50;;;;;5.54;49.70;103103.25;4963540;28;45418;-64
2023/02/08 01:30:54;;;;;;;;;43.50;38.00;;;;;5.52;49.94;103107.50;4945880;28;45275;-64
2023/02/08 01:33:19;;;;;;;;;55.50;41.25;;;;;5.51;49.92;103113.56;4963318;28;45826;-64
2023/02/08 01:35:45;;;;;;;;;56.50;44.75;;;;;5.49;49.65;103109.97;4961813;28;45531;-64
2023/02/08 01:38:10;;;;;;;;;56.50;42.75;;;;;5.49;49.83;103109.09;4963214;28;45279;-64
2023/02/08 01:40:36;;;;;;;;;57.50;45.50;;;;;5.47;49.76;103110.72;4963202;28;45251;-64
2023/02/08 01:43:01;;;;;;;;;55.00;41.00;;;;;5.41;49.55;103106.16;4963300;28;45374;-64
2023/02/08 01:45:30;;;;;;;;;54.25;40.00;;;;;5.43;49.83;103116.63;4962957;28;45255;-64
2023/02/08 01:48:03;;;;;;;;;49.50;42.75;;;;;5.44;49.54;103121.03;4963161;28;45259;-64
2023/02/08 01:50:42;;;;;;;;;48.00;40.25;;;;;5.41;49.69;103111.34;4963012;28;45421;-64
2023/02/08 01:53:08;;;;;;;;;54.00;43.75;;;;;5.41;49.71;103110.44;4963265;28;45355;-64
2023/02/08 01:55:38;;;;;;;;;45.50;40.00;;;;;5.40;49.89;103113.91;4962879;28;45488;-64
2023/02/08 01:58:11;;;;;;;;;46.50;37.00;;;;;5.35;50.00;103105.88;4945456;28;46128;-64
2023/02/08 02:00:36;;;;;;;;;45.75;39.25;;;;;5.35;49.75;103104.13;4962827;28;45306;-64
2023/02/08 02:03:03;;;;;;;;;52.50;40.50;;;;;5.30;49.60;103097.81;4963218;28;45184;-64
2023/02/08 02:05:38;;;;;;;;;46.75;39.00;;;;;5.31;49.89;103093.53;4962631;28;45460;-64
2023/02/08 02:08:05;;;;;;;;;50.00;42.00;;;;;5.29;49.99;103093.44;4962754;28;46144;-64
2023/02/08 02:10:32;;;;;;;;;48.50;41.00;;;;;5.28;49.73;103088.16;4962718;28;45265;-65
2023/02/08 02:13:04;;;;;;;;;42.00;36.00;;;;;5.27;50.14;103088.97;4962723;28;45285;-64
2023/02/08 02:15:30;;;;;;;;;50.00;39.25;;;;;5.26;49.74;103088.09;4962489;28;45417;-64
2023/02/08 02:17:55;;;;;;;;;39.75;36.75;;;;;5.23;49.37;103084.44;4945103;28;47179;-64
2023/02/08 02:20:35;;;;;;;;;42.00;36.00;;;;;5.25;49.59;103085.41;4962946;28;45218;-64
2023/02/08 02:23:30;;;;;;;;;45.25;38.00;;;;;5.24;50.01;103078.41;4962738;28;45371;-64
2023/02/08 02:26:18;;;;;;;;;41.25;36.50;;;;;5.19;49.74;103076.50;4962183;28;45328;-64
2023/02/08 02:29:29;;;;;;;;;47.75;35.50;;;;;5.17;50.19;103072.91;4962499;28;45362;-64
2023/02/08 02:31:57;;;;;;;;;38.25;34.25;;;;;5.18;50.12;103077.31;4962739;28;45410;-64
2023/02/08 02:34:33;;;;;;;;;41.00;36.75;;;;;5.16;50.17;103065.91;4961112;28;45326;-64
2023/02/08 02:37:17;;;;;;;;;44.50;36.25;;;;;5.13;49.96;103051.84;4945061;28;45201;-64
2023/02/08 02:40:04;;;;;;;;;42.25;33.50;;;;;5.15;49.79;103058.03;4946267;28;45209;-64
2023/02/08 02:45:56;;;;;;;;;41.50;38.75;;;;;5.12;50.25;103056.19;4962086;28;45434;-64
2023/02/08 02:48:30;;;;;;;;;37.75;32.50;;;;;5.09;49.83;103043.00;4962297;28;45366;-64
2023/02/08 02:51:08;;;;;;;;;41.25;36.50;;;;;5.08;50.12;103041.22;4961984;28;46269;-64
2023/02/08 02:53:47;;;;;;;;;39.75;35.50;;;;;5.10;50.25;103039.56;4961738;28;45476;-64
2023/02/08 02:56:17;;;;;;;;;43.75;36.75;;;;;5.08;50.19;103037.72;4962073;28;45586;-64
2023/02/08 02:58:44;;;;;;;;;43.50;32.75;;;;;5.02;49.72;103039.22;4944663;28;45349;-64
2023/02/08 03:01:09;;;;;;;;;37.25;32.75;;;;;5.08;50.00;103038.63;4962071;28;46202;-64
2023/02/08 03:03:35;;;;;;;;;42.00;36.75;;;;;4.98;50.58;103026.88;4961934;28;45331;-64
2023/02/08 03:06:18;;;;;;;;;44.00;37.50;;;;;5.05;50.01;103039.34;4962078;28;45307;-64
2023/02/08 03:09:02;;;;;;;;;46.25;38.00;;;;;5.04;50.02;103047.09;4960345;28;45634;-64
2023/02/08 03:11:31;;;;;;;;;45.00;38.50;;;;;5.02;49.91;103046.16;4960322;28;47131;-64
2023/02/08 03:14:26;;;;;;;;;42.75;37.75;;;;;5.01;50.24;103036.56;4961711;28;45283;-64
2023/02/08 03:17:16;;;;;;;;;54.50;39.75;;;;;4.99;50.24;103038.19;4943018;28;45263;-64
2023/02/08 03:19:47;;;;;;;;;46.00;36.25;;;;;4.97;50.07;103040.72;4961729;28;45224;-64
2023/02/08 03:22:27;;;;;;;;;32.25;29.00;;;;;4.95;50.09;103031.94;4961812;28;46258;-64
2023/02/08 03:25:00;;;;;;;;;36.00;32.75;;;;;4.94;50.13;103035.38;4961278;28;45560;-64
2023/02/08 03:27:39;;;;;;;;;41.75;36.25;;;;;4.92;50.09;103042.25;4961838;28;45131;-64
2023/02/08 03:30:19;;;;;;;;;45.50;34.75;;;;;4.91;50.07;103042.19;4961599;28;45448;-64
2023/02/08 03:32:57;;;;;;;;;40.75;33.50;;;;;4.88;50.06;103049.03;4961360;28;46143;-64
2023/02/08 03:35:26;;;;;;;;;43.00;35.50;;;;;4.86;50.24;103053.25;4959770;28;45430;-64
2023/02/08 03:38:07;;;;;;;;;41.25;36.75;;;;;4.85;50.72;103061.88;4944176;28;45257;-64
2023/02/08 03:40:38;;;;;;;;;41.75;36.00;;;;;4.81;50.40;103048.66;4960008;28;45611;-64
2023/02/08 03:43:12;;;;;;;;;20.25;17.25;;;;;4.80;50.33;103049.47;4961368;28;45397;-64
2023/02/08 03:45:45;;;;;;;;;35.75;33.25;;;;;4.75;50.17;103043.16;4961339;28;45492;-64
2023/02/08 03:48:16;;;;;;;;;44.50;38.00;;;;;4.76;50.36;103048.44;4961555;28;45262;-64
2023/02/08 03:50:47;;;;;;;;;38.25;33.25;;;;;4.76;50.45;103050.16;4960168;28;45433;-64
2023/02/08 03:53:18;;;;;;;;;42.25;36.25;;;;;4.74;50.45;103050.06;4960988;28;45327;-64
2023/02/08 03:55:45;;;;;;;;;46.00;39.25;;;;;4.72;50.21;103049.13;4961188;28;45416;-64
2023/02/08 03:58:24;;;;;;;;;39.50;33.25;;;;;4.70;50.37;103045.56;4960333;28;45364;-64
2023/02/08 04:01:07;;;;;;;;;39.25;36.25;;;;;4.65;50.50;103036.63;4948611;28;45370;-64
2023/02/08 04:03:35;;;;;;;;;41.25;37.25;;;;;4.66;50.48;103054.06;4960920;28;45250;-64
2023/02/08 04:06:00;;;;;;;;;33.25;30.25;;;;;4.63;49.84;103057.41;4961095;28;45298;-64
2023/02/08 04:08:26;;;;;;;;;49.25;39.50;;;;;4.62;50.45;103059.94;4959614;28;45383;-64
2023/02/08 04:10:51;;;;;;;;;40.75;33.75;;;;;4.60;50.16;103054.63;4944118;28;45231;-65
2023/02/08 04:13:17;;;;;;;;;36.75;34.00;;;;;4.59;50.18;103054.56;4960685;28;45414;-64
2023/02/08 04:15:43;;;;;;;;;36.00;33.75;;;;;4.54;50.53;103044.84;4960888;28;45452;-64
2023/02/08 04:18:09;;;;;;;;;42.25;34.75;;;;;4.55;50.51;103045.72;4961102;28;45449;-64
2023/02/08 04:20:34;;;;;;;;;37.50;32.00;;;;;4.53;50.31;103043.03;4960987;28;45439;-64
2023/02/08 04:22:59;;;;;;;;;42.75;34.75;;;;;4.43;50.51;103019.09;4960642;28;46128;-64
2023/02/08 04:25:25;;;;;;;;;44.00;35.00;;;;;4.50;50.43;103026.38;4960629;28;45306;-64
2023/02/08 04:27:50;;;;;;;;;36.00;32.75;;;;;4.47;50.20;103028.84;4960787;28;45235;-64
2023/02/08 04:30:16;;;;;;;;;21.50;16.25;;;;;4.49;50.12;103025.50;4960917;28;45354;-65
2023/02/08 04:32:41;;;;;;;;;33.75;32.00;;;;;4.44;50.24;103013.06;4943526;28;48234;-64
2023/02/08 04:35:07;;;;;;;;;35.75;29.50;;;;;4.45;50.50;103020.94;4960691;28;45200;-64
2023/02/08 04:37:32;;;;;;;;;36.00;30.25;;;;;4.43;50.57;103017.38;4960884;28;45425;-64
2023/02/08 04:39:58;;;;;;;;;35.50;29.75;;;;;4.42;50.24;103015.59;4960498;28;45327;-65
2023/02/08 04:42:23;;;;;;;;;46.75;37.00;;;;;4.41;50.27;103010.31;4960371;28;47062;-64
2023/02/08 04:44:48;;;;;;;;;39.50;35.50;;;;;4.41;50.37;103015.53;4960221;28;45401;-64
2023/02/08 04:47:14;;;;;;;;;36.00;32.50;;;;;4.38;50.34;103013.69;4960795;28;45300;-64
2023/02/08 04:49:39;;;;;;;;;38.50;32.25;;;;;4.37;50.12;103010.16;4960513;28;45394;-64
2023/02/08 04:52:04;;;;;;;;;36.75;31.75;;;;;4.35;50.38;103000.50;4960420;28;45396;-64
2023/02/08 04:54:30;;;;;;;;;35.50;31.00;;;;;4.27;50.36;103001.88;4960083;28;45241;-64
2023/02/08 04:56:55;;;;;;;;;37.00;31.25;;;;;4.32;50.32;103010.78;4960500;28;45454;-64
2023/02/08 04:59:21;;;;;;;;;40.75;34.75;;;;;4.29;50.48;103008.00;4960536;28;45529;-64
2023/02/08 05:01:46;;;;;;;;;36.25;34.00;;;;;4.28;49.83;103006.25;4942881;28;47305;-64
2023/02/08 05:04:12;;;;;;;;;41.50;35.00;;;;;4.25;50.60;103003.50;4942890;28;45325;-64
2023/02/08 05:06:37;;;;;;;;;39.00;35.00;;;;;4.25;50.53;103004.38;4959880;28;45341;-64
2023/02/08 05:09:06;;;;;;;;;34.50;32.00;;;;;4.23;50.32;103009.50;4961736;28;45473;-64
2023/02/08 05:11:31;;;;;;;;;40.25;36.50;;;;;4.20;50.75;103009.38;4963538;28;45361;-64
2023/02/08 05:13:57;;;;;;;;;37.75;32.50;;;;;4.16;50.49;103003.94;4962337;28;45495;-64
2023/02/08 05:16:22;;;;;;;;;39.75;34.25;;;;;4.17;50.37;103005.72;4963661;28;45264;-64
2023/02/08 05:18:47;;;;;;;;;43.75;36.25;;;;;4.16;50.59;103012.63;4963666;28;45454;-64
2023/02/08 05:21:13;;;;;;;;;37.25;30.25;;;;;4.10;50.69;103001.94;4963422;28;45338;-64
2023/02/08 05:23:38;;;;;;;;;49.00;39.00;;;;;4.11;50.46;102998.50;4963266;28;45283;-64
2023/02/08 05:26:08;;;;;;;;;40.25;35.75;;;;;4.13;50.19;103004.69;4963400;28;45220;-64
2023/02/08 05:28:35;;;;;;;;;42.00;35.25;;;;;4.11;50.30;103008.03;4963521;28;45485;-64
2023/02/08 05:31:09;;;;;;;;;42.50;32.25;;;;;4.09;50.60;103007.97;4963221;28;46395;-64
2023/02/08 05:33:35;;;;;;;;;40.25;31.00;;;;;4.09;50.66;103007.97;4963451;28;45501;-64
2023/02/08 05:36:00;;;;;;;;;45.25;36.50;;;;;4.07;50.38;103004.38;4963329;28;45323;-64
2023/02/08 05:38:25;;;;;;;;;44.00;35.50;;;;;4.04;50.45;102991.22;4963017;28;45347;-64
2023/02/08 05:40:50;;;;;;;;;32.75;27.00;;;;;4.03;50.61;102995.53;4945673;28;46955;-64
2023/02/08 05:43:16;;;;;;;;;37.00;34.50;;;;;4.03;50.44;102994.66;4963091;28;45260;-64
2023/02/08 05:45:41;;;;;;;;;43.25;34.00;;;;;4.02;50.38;102995.47;4963018;28;45241;-64
2023/02/08 05:48:06;;;;;;;;;44.50;36.50;;;;;3.99;50.29;102998.81;4963199;28;45326;-64
2023/02/08 05:50:32;;;;;;;;;39.50;36.00;;;;;3.98;50.83;103006.53;4962956;28;45993;-64
2023/02/08 05:52:58;;;;;;;;;32.25;30.00;;;;;3.96;50.55;103003.88;4945307;28;45937;-64
2023/02/08 05:55:25;;;;;;;;;38.25;33.75;;;;;3.93;50.64;102995.03;4963149;28;45229;-64
2023/02/08 05:57:50;;;;;;;;;34.75;31.25;;;;;3.89;50.56;102992.25;4962823;28;45224;-64
2023/02/08 06:00:15;;;;;;;;;37.25;30.25;;;;;3.93;50.37;103006.31;4945062;28;47678;-64
2023/02/08 06:02:41;;;;;;;;;42.50;35.25;;;;;3.89;50.99;103002.66;4945482;28;45192;-64
2023/02/08 06:05:06;;;;;;;;;43.25;34.25;;;;;3.90;50.28;103007.03;4962901;28;45447;-64
2023/02/08 06:07:32;;;;;;;;;37.75;36.50;;;;;3.89;50.52;103002.66;4945384;28;45385;-64
2023/02/08 06:09:57;;;;;;;;;35.50;30.25;;;;;3.90;50.57;103014.84;4944915;28;47296;-64
2023/02/08 06:12:22;;;;;;;;;39.00;35.00;;;;;3.89;50.89;103007.84;4962590;28;45339;-64
2023/02/08 06:14:48;;;;;;;;;34.75;32.25;;;;;3.88;50.49;103010.38;4962589;28;45425;-63
2023/02/08 06:17:14;;;;;;;;;39.25;34.25;;;;;3.86;50.31;103001.59;4961946;28;45326;-64
2023/02/08 06:19:39;;;;;;;;;43.00;38.25;;;;;3.88;50.44;103019.06;4944812;28;46266;-64
2023/02/08 06:22:04;;;;;;;;;37.25;33.25;;;;;3.86;50.56;103020.72;4960939;28;45327;-64
2023/02/08 06:24:30;;;;;;;;;41.25;36.75;;;;;3.86;50.33;103025.94;4962310;28;45540;-64
2023/02/08 06:26:55;;;;;;;;;42.50;37.00;;;;;3.85;50.87;103026.75;4961250;28;45981;-64
2023/02/08 06:29:21;;;;;;;;;34.00;33.50;;;;;3.83;50.92;103025.75;4962376;28;45282;-64
2023/02/08 06:31:46;;;;;;;;;44.50;36.50;;;;;3.84;50.64;103026.66;4962551;28;45398;-63
2023/02/08 06:34:11;;;;;;;;;16.75;16.00;;;;;3.83;50.36;103030.09;4962322;28;45335;-64
2023/02/08 06:36:37;;;;;;;;;38.50;33.75;;;;;3.80;50.65;103025.63;4962003;28;45228;-63
2023/02/08 06:39:02;;;;;;;;;38.50;32.50;;;;;3.79;50.37;103034.22;4961998;28;45403;-64
2023/02/08 06:41:27;;;;;;;;;43.50;33.00;;;;;3.80;50.53;103036.03;4962269;28;45224;-62
2023/02/08 06:43:53;;;;;;;;;41.75;37.00;;;;;3.75;50.54;103034.91;4962309;28;45252;-62
2023/02/08 06:46:18;;;;;;;;;40.75;36.50;;;;;3.75;50.48;103029.69;4961887;28;45210;-63
2023/02/08 06:48:43;;;;;;;;;37.50;33.00;;;;;3.73;51.00;103037.41;4962138;28;45462;-62
2023/02/08 06:51:09;;;;;;;;;44.00;36.75;;;;;3.75;50.78;103037.50;4962294;28;45174;-65
2023/02/08 06:53:34;;;;;;;;;43.75;37.25;;;;;3.74;50.80;103046.13;4944455;28;45568;-65
2023/02/08 06:55:59;;;;;;;;;36.50;33.00;;;;;3.72;50.56;103042.53;4961898;28;45240;-65
2023/02/08 06:58:25;;;;;;;;;35.75;32.75;;;;;3.69;50.89;103034.59;4961847;28;47009;-61
2023/02/08 07:00:50;;;;;;;;;37.50;34.50;;;;;3.69;50.73;103032.88;4962200;28;45235;-62
2023/02/08 07:03:18;;;;;;;;;36.50;34.00;;;;;3.69;50.72;103032.00;4962021;28;45267;-62
2023/02/08 07:05:44;;;;;;;;;39.50;35.00;;;;;3.64;50.79;103026.53;4961775;28;45593;-62
2023/02/08 07:08:09;;;;;;;;;37.00;29.00;;;;;3.62;50.80;103032.47;4944081;28;46058;-63
2023/02/08 07:10:38;;;;;;;;;46.25;37.25;;;;;3.60;50.42;103032.41;4961990;28;45328;-64
2023/02/08 07:13:03;;;;;;;;;40.50;34.75;;;;;3.63;50.34;103042.94;4961817;28;45223;-65
2023/02/08 07:15:29;;;;;;;;;41.50;36.00;;;;;3.63;51.05;103036.88;4961684;28;45305;-65
2023/02/08 07:17:55;;;;;;;;;40.75;35.25;;;;;3.64;50.90;103049.94;4949681;28;48012;-64
2023/02/08 07:20:20;;;;;;;;;40.75;34.00;;;;;3.62;50.42;103046.38;4960456;28;45401;-65
2023/02/08 07:22:46;;;;;;;;;42.00;35.50;;;;;3.62;50.48;103043.75;4960912;28;45721;-64
2023/02/08 07:25:11;;;;;;;;;32.00;31.75;;;;;3.58;50.53;103036.63;4960618;28;46248;-64
2023/02/08 07:27:36;;;;;;;;;36.50;34.25;;;;;3.57;50.97;103035.75;4957393;28;46008;-66
2023/02/08 07:30:03;;;;;;;;;50.75;37.00;;;;;3.53;50.67;103036.38;4954828;28;45634;-67
2023/02/08 07:32:28;;;;;;;;;43.25;37.25;;;;;3.57;50.97;103040.94;4953270;28;45427;-70
2023/02/08 07:34:54;;;;;;;;;42.75;37.00;;;;;3.57;50.92;103046.16;4958581;28;45398;-66
2023/02/08 07:37:19;;;;;;;;;41.50;36.75;;;;;3.52;51.11;103039.81;4960111;28;46028;-69
2023/02/08 07:39:44;;;;;;;;;44.25;38.50;;;;;3.55;50.41;103047.75;4960776;28;45354;-68
2023/02/08 07:42:10;;;;;;;;;43.75;38.75;;;;;3.55;50.53;103039.09;4958594;28;45557;-70
2023/02/08 07:44:37;;;;;;;;;39.75;35.00;;;;;3.55;50.54;103047.75;4959661;28;45496;-67
2023/02/08 07:47:03;;;;;;;;;53.25;41.50;;;;;3.57;50.75;103037.44;4939456;28;46824;-69
2023/02/08 07:49:28;;;;;;;;;58.25;41.75;;;;;3.52;50.58;103037.22;4961088;28;45318;-68
2023/02/08 07:51:54;;;;;;;;;21.25;17.50;;;;;3.56;50.36;103035.69;4942378;28;45652;-70
2023/02/08 07:54:19;;;;;;;;;51.50;40.00;;;;;3.55;50.87;103033.88;4960328;28;45710;-69
2023/02/08 07:56:44;;;;;;;;;47.00;37.25;;;;;3.53;50.62;103033.78;4956422;28;46117;-67
2023/02/08 07:59:10;;;;;;;;;52.25;42.25;;;;;3.49;50.66;103024.03;4960061;28;45179;-65
2023/02/08 08:01:35;;;;;;;;;53.50;43.00;;;;;3.54;50.56;103035.56;4960610;28;45306;-66
2023/02/08 08:04:01;;;;;;;;;39.75;37.00;;;;;3.49;50.68;103025.75;4943209;28;46026;-68
2023/02/08 08:06:26;;;;;;;;;44.25;37.50;;;;;3.54;50.49;103025.16;4960259;28;46221;-69
2023/02/08 08:08:52;;;;;;;;;47.25;38.25;;;;;3.56;50.87;103031.34;4960621;28;45298;-66
2023/02/08 08:11:19;;;;;;;;;45.00;38.75;;;;;3.54;50.87;103030.38;4959627;28;45505;-68
2023/02/08 08:13:44;;;;;;;;;46.75;41.00;;;;;3.56;50.53;103026.16;4942974;28;45924;-68
2023/02/08 08:16:10;;;;;;;;;38.75;36.75;;;;;3.53;50.64;103018.19;4949696;28;46108;-69
2023/02/08 08:18:35;;;;;;;;;48.25;40.75;;;;;3.60;50.77;103026.28;4950146;28;45348;-73
2023/02/08 08:21:01;;;;;;;;;53.00;39.75;;;;;3.60;50.89;103021.09;4960287;28;45311;-68
2023/02/08 08:23:31;;;;;;;;;44.00;40.25;;;;;3.62;50.51;103025.56;4960233;28;45597;-71
2023/02/08 08:25:57;;;;;;;;;39.00;38.00;;;;;3.62;50.66;103022.97;4958301;28;46355;-66
2023/02/08 08:28:22;;;;;;;;;49.75;40.00;;;;;3.62;50.88;103022.06;4950185;28;45448;-71
2023/02/08 08:30:48;;;;;;;;;42.75;36.00;;;;;3.68;50.20;103017.19;4960361;28;45373;-69
2023/02/08 08:33:13;;;;;;;;;45.00;36.50;;;;;3.68;50.71;103017.19;4960309;28;45374;-67
2023/02/08 08:35:39;;;;;;;;;50.50;42.00;;;;;3.75;50.60;103016.69;4942436;28;48361;-67
2023/02/08 08:38:04;;;;;;;;;44.75;38.75;;;;;3.79;50.83;103018.63;4953120;28;45403;-66
2023/02/08 08:40:30;;;;;;;;;45.50;36.75;;;;;3.82;51.01;103017.88;4960066;28;45412;-67
2023/02/08 08:42:56;;;;;;;;;57.75;45.25;;;;;3.82;50.99;103012.69;4941736;28;45561;-67
2023/02/08 08:45:21;;;;;;;;;47.50;39.50;;;;;3.89;51.07;103020.00;4944415;28;47312;-67
2023/02/08 08:47:47;;;;;;;;;53.00;40.75;;;;;3.93;50.91;103023.63;4946088;28;45338;-66
2023/02/08 08:50:13;;;;;;;;;45.75;39.75;;;;;3.95;50.99;103016.78;4963626;28;45389;-66
2023/02/08 08:52:39;;;;;;;;;58.25;40.25;;;;;4.03;50.59;103023.28;4962342;28;45405;-67
2023/02/08 08:55:05;;;;;;;;;56.75;41.25;;;;;4.09;50.61;103020.06;4962889;28;48220;-66
2023/02/08 08:57:30;;;;;;;;;51.75;40.25;;;;;4.15;50.64;103012.56;4963346;28;45317;-67
2023/02/08 08:59:56;;;;;;;;;53.75;42.00;;;;;4.21;51.10;103007.66;4963491;28;45321;-66
2023/02/08 09:02:21;;;;;;;;;51.25;41.75;;;;;4.27;50.77;102997.53;4946180;28;45245;-67
2023/02/08 09:04:46;;;;;;;;;57.75;45.25;;;;;4.35;50.70;103000.50;4962894;28;46116;-66
2023/02/08 09:07:12;;;;;;;;;54.50;42.75;;;;;4.39;50.87;102990.31;4946105;28;45398;-67
2023/02/08 09:09:38;;;;;;;;;50.50;40.00;;;;;4.46;50.81;102988.88;4962972;28;45338;-67
2023/02/08 09:12:03;;;;;;;;;52.75;41.75;;;;;4.56;50.84;102987.59;4945608;28;45499;-66
2023/02/08 09:14:29;;;;;;;;;46.75;38.50;;;;;4.65;50.72;102980.22;4961116;28;46033;-62
2023/02/08 09:16:54;;;;;;;;;40.75;35.75;;;;;4.74;51.14;102976.25;4957182;28;45293;-65
2023/02/08 09:19:20;;;;;;;;;47.50;41.25;;;;;4.82;50.37;102981.00;4945723;28;45448;-71
2023/02/08 09:21:45;;;;;;;;;50.00;39.00;;;;;4.92;51.14;102981.41;4958528;28;45460;-67
2023/02/08 09:24:11;;;;;;;;;37.00;33.00;;;;;4.99;50.89;102973.94;4962639;28;46161;-68
2023/02/08 09:26:37;;;;;;;;;44.50;36.50;;;;;5.13;51.10;102978.84;4962742;28;45429;-69
2023/02/08 09:29:04;;;;;;;;;38.00;29.75;;;;;5.20;50.89;102971.38;4961998;28;45303;-68
2023/02/08 09:31:32;;;;;;;;;48.50;38.00;;;;;5.34;50.94;102969.34;4962106;28;45424;-68
2023/02/08 09:33:59;;;;;;;;;45.25;38.00;;;;;5.44;50.92;102970.66;4962719;28;45524;-68
2023/02/08 09:36:30;;;;;;;;;36.00;35.25;;;;;5.58;51.19;102967.75;4956964;28;45406;-70
2023/02/08 09:38:59;;;;;;;;;43.50;38.50;;;;;5.71;51.00;102967.44;4964350;28;45372;-67
2023/02/08 09:41:27;;;;;;;;;40.25;35.75;;;;;5.89;51.05;102971.59;4962775;28;45301;-67
2023/02/08 09:44:05;;;;;;;;;42.75;38.25;;;;;6.03;51.18;102969.63;4962473;28;46101;-67
2023/02/08 09:46:37;;;;;;;;;40.50;35.00;;;;;6.11;51.15;102961.28;4962507;28;45433;-68
2023/02/08 09:49:10;;;;;;;;;45.00;38.25;;;;;6.26;51.22;102963.56;4962904;28;45230;-72
2023/02/08 09:51:44;;;;;;;;;44.00;37.75;;;;;6.43;51.05;102972.06;4961857;28;45492;-66
2023/02/08 09:54:21;;;;;;;;;48.50;40.00;;;;;6.54;51.04;102954.22;4962217;28;46538;-68
2023/02/08 09:56:48;;;;;;;;;43.00;38.50;;;;;6.65;51.28;102945.06;4943670;28;45489;-68
2023/02/08 09:59:20;;;;;;;;;45.50;37.25;;;;;6.90;51.13;102960.75;4962667;28;45382;-70
2023/02/08 10:01:48;;;;;;;;;48.25;37.50;;;;;7.07;51.11;102959.63;4962485;28;45387;-65
2023/02/08 10:04:27;;;;;;;;;42.25;37.00;;;;;7.26;51.14;102955.06;4962267;28;46877;-65
2023/02/08 10:06:52;;;;;;;;;45.75;39.75;;;;;7.44;51.26;102950.44;4962465;28;45509;-65
2023/02/08 10:09:23;;;;;;;;;51.00;37.75;;;;;7.55;51.13;102944.69;4962265;28;45391;-65
2023/02/08 10:11:58;;;;;;;;;50.75;39.50;;;;;7.81;51.16;102959.53;4961532;28;45291;-65
2023/02/08 10:14:30;;;;;;;;;47.00;38.75;;;;;7.97;51.28;102962.63;4961684;28;45486;-65
2023/02/08 10:16:56;;;;;;;;;51.50;38.50;;;;;8.14;51.32;102958.81;4955428;28;45404;-65
2023/02/08 10:19:59;;;;;;;;;41.50;36.75;;;;;8.32;51.44;102952.38;4944935;28;45440;-65
2023/02/08 10:22:53;;;;;;;;;44.25;36.25;;;;;8.52;51.40;102952.13;4958979;28;45496;-69
2023/02/08 10:25:25;;;;;;;;;47.25;39.25;;;;;8.64;51.44;102955.13;4955565;28;46384;-68
2023/02/08 10:28:14;;;;;;;;;44.50;35.25;;;;;8.87;51.51;102968.00;4961935;28;45458;-68
2023/02/08 10:30:59;;;;;;;;;43.75;37.00;;;;;9.09;51.11;102969.47;4961915;28;45370;-68
2023/02/08 10:33:33;;;;;;;;;38.25;34.75;;;;;9.29;51.15;102962.13;4955882;28;45382;-68
2023/02/08 10:35:59;;;;;;;;;45.50;36.25;;;;;9.48;51.00;102966.13;4959804;28;45436;-67
2023/02/08 10:38:28;;;;;;;;;40.75;35.75;;;;;9.64;51.24;102970.03;4956496;28;45267;-67
2023/02/08 10:40:58;;;;;;;;;48.50;37.75;;;;;9.84;51.16;102967.91;4957492;28;45288;-66
2023/02/08 10:43:40;;;;;;;;;44.75;36.50;;;;;10.02;50.93;102959.56;4957530;28;45431;-69
2023/02/08 10:46:34;;;;;;;;;36.25;35.00;;;;;10.23;51.18;102964.44;4953284;28;46327;-66
2023/02/08 10:49:21;;;;;;;;;44.25;37.75;;;;;10.44;51.02;102957.03;4957552;28;45390;-67
2023/02/08 10:51:47;;;;;;;;;42.25;34.75;;;;;10.62;50.93;102960.06;4958512;28;45275;-67
2023/02/08 10:54:14;;;;;;;;;40.00;35.00;;;;;10.80;51.13;102969.19;4955896;28;45595;-65
2023/02/08 10:57:01;;;;;;;;;41.00;34.50;;;;;10.97;50.96;102964.25;4956983;28;45461;-65
2023/02/08 10:59:31;;;;;;;;;38.75;32.50;;;;;11.15;50.96;102958.47;4957088;28;46506;-69
2023/02/08 11:01:57;;;;;;;;;30.25;27.75;;;;;11.31;51.06;102955.25;4958084;28;45456;-69
2023/02/08 11:04:23;;;;;;;;;37.50;34.75;;;;;11.46;50.99;102949.38;4957146;28;46502;-69
2023/02/08 11:06:50;;;;;;;;;37.50;33.25;;;;;11.66;50.81;102952.34;4957812;28;45295;-68
2023/02/08 11:09:28;;;;;;;;;35.25;31.25;;;;;11.86;50.98;102949.13;4957564;28;45468;-69
2023/02/08 11:11:56;;;;;;;;;39.00;33.50;;;;;12.02;50.87;102938.03;4940550;28;45444;-69
2023/02/08 11:14:26;;;;;;;;;34.75;30.75;;;;;12.17;50.72;102939.97;4939044;28;45201;-68
2023/02/08 11:16:54;;;;;;;;;37.50;31.50;;;;;12.38;50.74;102942.88;4956729;28;45437;-68
2023/02/08 11:19:45;;;;;;;;;31.75;28.25;;;;;12.55;50.61;102940.47;4957629;28;45465;-68
2023/02/08 11:22:23;;;;;;;;;39.25;31.75;;;;;12.70;50.51;102938.03;4940313;28;45538;-69
2023/02/08 11:25:04;;;;;;;;;41.00;32.00;;;;;12.85;50.53;102932.03;4957489;28;45239;-69
2023/02/08 11:27:35;;;;;;;;;32.25;30.25;;;;;12.98;50.12;102938.31;4957100;28;45754;-68